sensor_id;sensor_type;location;lat;lon;timestamp;P1;durP1;ratioP1;P2;durP2;ratioP2
1613;SDS011;800;48.824;9.346;2022-12-24T00:01:14;4.70;;;1.70;;
1613;SDS011;800;48.824;9.346;2022-12-24T00:03:40;2.67;;;1.73;;
1613;SDS011;800;48.824;9.346;2022-12-24T00:06:06;6.50;;;1.53;;
1613;SDS011;800;48.824;9.346;2022-12-24T00:08:40;4.57;;;1.70;;
1613;SDS011;800;48.824;9.346;2022-12-24T00:11:05;3.10;;;1.50;;
1613;SDS011;800;48.824;9.346;2022-12-24T00:13:31;4.63;;;1.93;;
1613;SDS011;800;48.824;9.346;2022-12-24T00:15:57;5.30;;;2.23;;
1613;SDS011;800;48.824;9.346;2022-12-24T00:18:22;1.73;;;1.40;;
1613;SDS011;800;48.824;9.346;2022-12-24T00:20:48;3.43;;;1.40;;
1613;SDS011;800;48.824;9.346;2022-12-24T00:23:15;2.77;;;1.50;;
1613;SDS011;800;48.824;9.346;2022-12-24T00:25:41;3.37;;;1.30;;
1613;SDS011;800;48.824;9.346;2022-12-24T00:28:07;6.40;;;2.70;;
1613;SDS011;800;48.824;9.346;2022-12-24T00:30:33;2.90;;;1.40;;
1613;SDS011;800;48.824;9.346;2022-12-24T00:32:58;3.83;;;1.67;;
1613;SDS011;800;48.824;9.346;2022-12-24T00:35:24;4.80;;;1.80;;
1613;SDS011;800;48.824;9.346;2022-12-24T00:37:50;3.70;;;1.40;;
1613;SDS011;800;48.824;9.346;2022-12-24T00:40:16;2.63;;;1.40;;
1613;SDS011;800;48.824;9.346;2022-12-24T00:42:42;2.47;;;1.23;;
1613;SDS011;800;48.824;9.346;2022-12-24T00:45:08;5.13;;;1.70;;
1613;SDS011;800;48.824;9.346;2022-12-24T00:47:34;7.60;;;1.67;;
1613;SDS011;800;48.824;9.346;2022-12-24T00:50:00;6.47;;;1.70;;
1613;SDS011;800;48.824;9.346;2022-12-24T00:52:26;3.20;;;1.20;;
1613;SDS011;800;48.824;9.346;2022-12-24T00:54:51;3.70;;;1.87;;
1613;SDS011;800;48.824;9.346;2022-12-24T00:57:17;7.13;;;1.60;;
1613;SDS011;800;48.824;9.346;2022-12-24T00:59:43;3.53;;;1.50;;
1613;SDS011;800;48.824;9.346;2022-12-24T01:02:08;2.80;;;1.47;;
1613;SDS011;800;48.824;9.346;2022-12-24T01:04:34;4.73;;;2.37;;
1613;SDS011;800;48.824;9.346;2022-12-24T01:07:18;7.97;;;2.00;;
1613;SDS011;800;48.824;9.346;2022-12-24T01:09:44;4.40;;;1.40;;
1613;SDS011;800;48.824;9.346;2022-12-24T01:12:09;4.53;;;1.80;;
1613;SDS011;800;48.824;9.346;2022-12-24T01:14:35;4.23;;;1.70;;
1613;SDS011;800;48.824;9.346;2022-12-24T01:17:02;3.03;;;1.57;;
1613;SDS011;800;48.824;9.346;2022-12-24T01:19:28;3.93;;;1.40;;
1613;SDS011;800;48.824;9.346;2022-12-24T01:21:53;4.70;;;2.63;;
1613;SDS011;800;48.824;9.346;2022-12-24T01:24:19;4.30;;;1.60;;
1613;SDS011;800;48.824;9.346;2022-12-24T01:26:45;5.17;;;2.10;;
1613;SDS011;800;48.824;9.346;2022-12-24T01:29:10;4.00;;;1.40;;
1613;SDS011;800;48.824;9.346;2022-12-24T01:31:36;4.73;;;1.60;;
1613;SDS011;800;48.824;9.346;2022-12-24T01:34:02;3.93;;;1.40;;
1613;SDS011;800;48.824;9.346;2022-12-24T01:36:27;4.80;;;2.07;;
1613;SDS011;800;48.824;9.346;2022-12-24T01:38:53;3.50;;;1.73;;
1613;SDS011;800;48.824;9.346;2022-12-24T01:41:20;5.83;;;2.07;;
1613;SDS011;800;48.824;9.346;2022-12-24T01:44:21;7.70;;;2.07;;
1613;SDS011;800;48.824;9.346;2022-12-24T01:47:03;4.63;;;1.70;;
1613;SDS011;800;48.824;9.346;2022-12-24T01:49:38;10.17;;;2.17;;
1613;SDS011;800;48.824;9.346;2022-12-24T01:52:08;3.43;;;1.77;;
1613;SDS011;800;48.824;9.346;2022-12-24T01:55:01;6.23;;;1.47;;
1613;SDS011;800;48.824;9.346;2022-12-24T01:57:32;7.40;;;1.90;;
1613;SDS011;800;48.824;9.346;2022-12-24T02:00:10;5.07;;;1.60;;
1613;SDS011;800;48.824;9.346;2022-12-24T02:02:38;5.50;;;2.30;;
1613;SDS011;800;48.824;9.346;2022-12-24T02:05:51;9.13;;;2.40;;
1613;SDS011;800;48.824;9.346;2022-12-24T02:07:53;9.80;;;2.47;;
1613;SDS011;800;48.824;9.346;2022-12-24T02:10:20;6.07;;;1.87;;
1613;SDS011;800;48.824;9.346;2022-12-24T02:12:47;6.53;;;2.10;;
1613;SDS011;800;48.824;9.346;2022-12-24T02:15:13;5.43;;;2.27;;
1613;SDS011;800;48.824;9.346;2022-12-24T02:17:45;8.90;;;1.90;;
1613;SDS011;800;48.824;9.346;2022-12-24T02:28:53;8.67;;;2.07;;
1613;SDS011;800;48.824;9.346;2022-12-24T02:31:38;4.40;;;1.40;;
1613;SDS011;800;48.824;9.346;2022-12-24T02:34:16;5.53;;;1.67;;
1613;SDS011;800;48.824;9.346;2022-12-24T02:36:54;10.57;;;2.43;;
1613;SDS011;800;48.824;9.346;2022-12-24T02:39:38;5.70;;;1.90;;
1613;SDS011;800;48.824;9.346;2022-12-24T02:42:16;7.57;;;2.10;;
1613;SDS011;800;48.824;9.346;2022-12-24T02:44:46;12.90;;;2.57;;
1613;SDS011;800;48.824;9.346;2022-12-24T02:47:25;7.03;;;1.83;;
1613;SDS011;800;48.824;9.346;2022-12-24T02:49:52;4.70;;;2.23;;
1613;SDS011;800;48.824;9.346;2022-12-24T02:52:35;5.37;;;1.60;;
1613;SDS011;800;48.824;9.346;2022-12-24T02:55:10;5.10;;;1.60;;
1613;SDS011;800;48.824;9.346;2022-12-24T03:00:15;6.93;;;2.20;;
1613;SDS011;800;48.824;9.346;2022-12-24T03:11:12;6.47;;;1.70;;
1613;SDS011;800;48.824;9.346;2022-12-24T03:13:40;8.00;;;2.47;;
1613;SDS011;800;48.824;9.346;2022-12-24T03:16:10;6.00;;;2.10;;
1613;SDS011;800;48.824;9.346;2022-12-24T03:18:41;4.77;;;2.13;;
1613;SDS011;800;48.824;9.346;2022-12-24T03:21:13;5.80;;;2.10;;
1613;SDS011;800;48.824;9.346;2022-12-24T03:23:44;8.13;;;2.00;;
1613;SDS011;800;48.824;9.346;2022-12-24T03:26:10;8.80;;;2.00;;
1613;SDS011;800;48.824;9.346;2022-12-24T03:28:38;3.73;;;2.07;;
1613;SDS011;800;48.824;9.346;2022-12-24T03:31:05;7.40;;;2.00;;
1613;SDS011;800;48.824;9.346;2022-12-24T03:33:32;6.53;;;2.40;;
1613;SDS011;800;48.824;9.346;2022-12-24T03:35:58;9.47;;;2.47;;
1613;SDS011;800;48.824;9.346;2022-12-24T03:38:24;4.50;;;1.90;;
1613;SDS011;800;48.824;9.346;2022-12-24T03:40:50;5.90;;;2.60;;
1613;SDS011;800;48.824;9.346;2022-12-24T03:43:16;3.80;;;1.93;;
1613;SDS011;800;48.824;9.346;2022-12-24T03:45:41;5.83;;;2.17;;
1613;SDS011;800;48.824;9.346;2022-12-24T03:48:07;4.50;;;1.63;;
1613;SDS011;800;48.824;9.346;2022-12-24T03:50:32;5.20;;;2.23;;
1613;SDS011;800;48.824;9.346;2022-12-24T03:52:58;7.33;;;2.10;;
1613;SDS011;800;48.824;9.346;2022-12-24T03:55:24;3.17;;;1.53;;
1613;SDS011;800;48.824;9.346;2022-12-24T03:57:50;10.20;;;2.13;;
1613;SDS011;800;48.824;9.346;2022-12-24T04:00:15;4.77;;;1.83;;
1613;SDS011;800;48.824;9.346;2022-12-24T04:02:41;5.17;;;1.87;;
1613;SDS011;800;48.824;9.346;2022-12-24T04:05:08;9.90;;;1.90;;
1613;SDS011;800;48.824;9.346;2022-12-24T04:07:38;11.03;;;2.47;;
1613;SDS011;800;48.824;9.346;2022-12-24T04:10:04;7.60;;;2.10;;
1613;SDS011;800;48.824;9.346;2022-12-24T04:12:29;5.20;;;1.90;;
1613;SDS011;800;48.824;9.346;2022-12-24T04:14:55;8.03;;;4.13;;
1613;SDS011;800;48.824;9.346;2022-12-24T04:17:21;4.97;;;1.93;;
1613;SDS011;800;48.824;9.346;2022-12-24T04:19:46;11.60;;;2.17;;
1613;SDS011;800;48.824;9.346;2022-12-24T04:22:12;5.17;;;2.07;;
1613;SDS011;800;48.824;9.346;2022-12-24T04:24:37;7.10;;;4.03;;
1613;SDS011;800;48.824;9.346;2022-12-24T04:27:03;4.40;;;1.60;;
1613;SDS011;800;48.824;9.346;2022-12-24T04:29:28;5.67;;;1.80;;
1613;SDS011;800;48.824;9.346;2022-12-24T04:31:54;6.93;;;2.20;;
1613;SDS011;800;48.824;9.346;2022-12-24T04:34:19;8.23;;;1.80;;
1613;SDS011;800;48.824;9.346;2022-12-24T04:36:45;5.20;;;1.83;;
1613;SDS011;800;48.824;9.346;2022-12-24T04:39:10;8.67;;;2.67;;
1613;SDS011;800;48.824;9.346;2022-12-24T04:41:36;5.57;;;2.20;;
1613;SDS011;800;48.824;9.346;2022-12-24T04:44:02;4.07;;;1.73;;
1613;SDS011;800;48.824;9.346;2022-12-24T04:46:27;5.03;;;2.13;;
1613;SDS011;800;48.824;9.346;2022-12-24T04:48:54;5.60;;;2.33;;
1613;SDS011;800;48.824;9.346;2022-12-24T04:51:21;4.77;;;2.70;;
1613;SDS011;800;48.824;9.346;2022-12-24T04:53:47;10.90;;;2.63;;
1613;SDS011;800;48.824;9.346;2022-12-24T04:56:31;5.50;;;2.40;;
1613;SDS011;800;48.824;9.346;2022-12-24T04:58:57;6.83;;;2.17;;
1613;SDS011;800;48.824;9.346;2022-12-24T05:01:25;4.23;;;2.23;;
1613;SDS011;800;48.824;9.346;2022-12-24T05:03:52;10.30;;;2.33;;
1613;SDS011;800;48.824;9.346;2022-12-24T05:06:22;3.20;;;1.87;;
1613;SDS011;800;48.824;9.346;2022-12-24T05:08:52;8.20;;;2.20;;
1613;SDS011;800;48.824;9.346;2022-12-24T05:11:19;5.87;;;1.97;;
1613;SDS011;800;48.824;9.346;2022-12-24T05:13:45;5.20;;;1.73;;
1613;SDS011;800;48.824;9.346;2022-12-24T05:16:11;9.07;;;2.73;;
1613;SDS011;800;48.824;9.346;2022-12-24T05:18:38;7.87;;;2.53;;
1613;SDS011;800;48.824;9.346;2022-12-24T05:21:11;3.37;;;2.17;;
1613;SDS011;800;48.824;9.346;2022-12-24T05:23:39;9.43;;;2.20;;
1613;SDS011;800;48.824;9.346;2022-12-24T05:26:31;6.10;;;2.10;;
1613;SDS011;800;48.824;9.346;2022-12-24T05:28:59;6.60;;;2.47;;
1613;SDS011;800;48.824;9.346;2022-12-24T05:31:27;8.67;;;2.20;;
1613;SDS011;800;48.824;9.346;2022-12-24T05:33:54;3.00;;;1.60;;
1613;SDS011;800;48.824;9.346;2022-12-24T05:36:19;5.37;;;2.03;;
1613;SDS011;800;48.824;9.346;2022-12-24T05:38:46;5.50;;;2.50;;
1613;SDS011;800;48.824;9.346;2022-12-24T05:41:12;5.17;;;1.70;;
1613;SDS011;800;48.824;9.346;2022-12-24T05:43:38;8.33;;;2.37;;
1613;SDS011;800;48.824;9.346;2022-12-24T05:46:05;4.43;;;1.80;;
1613;SDS011;800;48.824;9.346;2022-12-24T05:48:32;5.77;;;2.10;;
1613;SDS011;800;48.824;9.346;2022-12-24T05:50:57;3.60;;;1.60;;
1613;SDS011;800;48.824;9.346;2022-12-24T05:53:23;6.67;;;2.27;;
1613;SDS011;800;48.824;9.346;2022-12-24T05:55:49;8.23;;;2.20;;
1613;SDS011;800;48.824;9.346;2022-12-24T05:58:15;6.73;;;2.20;;
1613;SDS011;800;48.824;9.346;2022-12-24T06:00:40;9.13;;;1.90;;
1613;SDS011;800;48.824;9.346;2022-12-24T06:03:06;5.90;;;1.80;;
1613;SDS011;800;48.824;9.346;2022-12-24T06:05:32;9.17;;;2.07;;
1613;SDS011;800;48.824;9.346;2022-12-24T06:07:58;6.73;;;1.80;;
1613;SDS011;800;48.824;9.346;2022-12-24T06:10:23;3.90;;;1.87;;
1613;SDS011;800;48.824;9.346;2022-12-24T06:12:49;6.63;;;2.60;;
1613;SDS011;800;48.824;9.346;2022-12-24T06:15:14;7.20;;;2.10;;
1613;SDS011;800;48.824;9.346;2022-12-24T06:17:40;8.30;;;2.30;;
1613;SDS011;800;48.824;9.346;2022-12-24T06:20:06;5.63;;;2.17;;
1613;SDS011;800;48.824;9.346;2022-12-24T06:22:32;9.90;;;2.53;;
1613;SDS011;800;48.824;9.346;2022-12-24T06:24:57;6.30;;;1.93;;
1613;SDS011;800;48.824;9.346;2022-12-24T06:27:23;5.73;;;2.27;;
1613;SDS011;800;48.824;9.346;2022-12-24T06:29:49;7.80;;;2.17;;
1613;SDS011;800;48.824;9.346;2022-12-24T06:32:14;8.10;;;2.47;;
1613;SDS011;800;48.824;9.346;2022-12-24T06:34:40;4.53;;;2.07;;
1613;SDS011;800;48.824;9.346;2022-12-24T06:37:06;6.20;;;2.33;;
1613;SDS011;800;48.824;9.346;2022-12-24T06:39:31;8.37;;;2.87;;
1613;SDS011;800;48.824;9.346;2022-12-24T06:41:57;3.90;;;2.20;;
1613;SDS011;800;48.824;9.346;2022-12-24T06:44:22;8.43;;;2.40;;
1613;SDS011;800;48.824;9.346;2022-12-24T06:46:48;4.43;;;1.63;;
1613;SDS011;800;48.824;9.346;2022-12-24T06:49:14;3.07;;;1.97;;
1613;SDS011;800;48.824;9.346;2022-12-24T06:51:39;3.83;;;2.07;;
1613;SDS011;800;48.824;9.346;2022-12-24T06:54:05;5.90;;;2.47;;
1613;SDS011;800;48.824;9.346;2022-12-24T06:56:31;2.80;;;1.93;;
1613;SDS011;800;48.824;9.346;2022-12-24T06:58:56;7.57;;;2.17;;
1613;SDS011;800;48.824;9.346;2022-12-24T07:01:22;8.40;;;1.90;;
1613;SDS011;800;48.824;9.346;2022-12-24T07:03:48;7.50;;;2.60;;
1613;SDS011;800;48.824;9.346;2022-12-24T07:06:15;7.63;;;3.17;;
1613;SDS011;800;48.824;9.346;2022-12-24T07:08:41;7.07;;;3.83;;
1613;SDS011;800;48.824;9.346;2022-12-24T07:11:07;4.83;;;2.50;;
1613;SDS011;800;48.824;9.346;2022-12-24T07:13:32;8.07;;;2.80;;
1613;SDS011;800;48.824;9.346;2022-12-24T07:15:59;4.33;;;2.00;;
1613;SDS011;800;48.824;9.346;2022-12-24T07:18:26;10.77;;;3.00;;
1613;SDS011;800;48.824;9.346;2022-12-24T07:20:52;6.87;;;2.30;;
1613;SDS011;800;48.824;9.346;2022-12-24T07:23:17;5.20;;;2.13;;
1613;SDS011;800;48.824;9.346;2022-12-24T07:25:43;6.93;;;1.73;;
1613;SDS011;800;48.824;9.346;2022-12-24T07:28:09;6.70;;;2.10;;
1613;SDS011;800;48.824;9.346;2022-12-24T07:30:34;8.53;;;2.20;;
1613;SDS011;800;48.824;9.346;2022-12-24T07:33:00;8.20;;;1.90;;
1613;SDS011;800;48.824;9.346;2022-12-24T07:35:26;6.40;;;2.23;;
1613;SDS011;800;48.824;9.346;2022-12-24T07:37:51;5.33;;;1.90;;
1613;SDS011;800;48.824;9.346;2022-12-24T07:40:17;4.57;;;2.20;;
1613;SDS011;800;48.824;9.346;2022-12-24T07:42:42;5.30;;;2.00;;
1613;SDS011;800;48.824;9.346;2022-12-24T07:45:08;7.63;;;2.10;;
1613;SDS011;800;48.824;9.346;2022-12-24T07:47:34;6.63;;;1.83;;
1613;SDS011;800;48.824;9.346;2022-12-24T07:50:00;3.67;;;1.73;;
1613;SDS011;800;48.824;9.346;2022-12-24T07:52:26;7.80;;;2.27;;
1613;SDS011;800;48.824;9.346;2022-12-24T07:54:51;6.80;;;2.70;;
1613;SDS011;800;48.824;9.346;2022-12-24T07:57:17;10.17;;;2.37;;
1613;SDS011;800;48.824;9.346;2022-12-24T07:59:43;11.07;;;2.60;;
1613;SDS011;800;48.824;9.346;2022-12-24T08:02:09;12.50;;;2.20;;
1613;SDS011;800;48.824;9.346;2022-12-24T08:04:35;4.63;;;1.80;;
1613;SDS011;800;48.824;9.346;2022-12-24T08:07:02;4.37;;;1.87;;
1613;SDS011;800;48.824;9.346;2022-12-24T08:09:34;7.23;;;3.47;;
1613;SDS011;800;48.824;9.346;2022-12-24T08:12:00;3.87;;;2.90;;
1613;SDS011;800;48.824;9.346;2022-12-24T08:14:30;8.00;;;3.77;;
1613;SDS011;800;48.824;9.346;2022-12-24T08:16:56;6.63;;;2.13;;
1613;SDS011;800;48.824;9.346;2022-12-24T08:19:22;5.97;;;2.17;;
1613;SDS011;800;48.824;9.346;2022-12-24T08:21:48;6.80;;;2.60;;
1613;SDS011;800;48.824;9.346;2022-12-24T08:24:14;6.33;;;2.80;;
1613;SDS011;800;48.824;9.346;2022-12-24T08:26:39;4.93;;;2.50;;
1613;SDS011;800;48.824;9.346;2022-12-24T08:29:06;4.43;;;2.17;;
1613;SDS011;800;48.824;9.346;2022-12-24T08:31:31;4.83;;;2.07;;
1613;SDS011;800;48.824;9.346;2022-12-24T08:34:00;6.73;;;2.13;;
1613;SDS011;800;48.824;9.346;2022-12-24T08:36:27;3.87;;;2.07;;
1613;SDS011;800;48.824;9.346;2022-12-24T08:38:53;7.07;;;2.60;;
1613;SDS011;800;48.824;9.346;2022-12-24T08:41:18;4.10;;;2.03;;
1613;SDS011;800;48.824;9.346;2022-12-24T08:43:44;11.47;;;2.60;;
1613;SDS011;800;48.824;9.346;2022-12-24T08:46:09;5.20;;;2.00;;
1613;SDS011;800;48.824;9.346;2022-12-24T08:48:35;5.90;;;2.80;;
1613;SDS011;800;48.824;9.346;2022-12-24T08:51:05;9.50;;;2.10;;
1613;SDS011;800;48.824;9.346;2022-12-24T08:53:34;5.10;;;2.30;;
1613;SDS011;800;48.824;9.346;2022-12-24T08:56:01;7.83;;;2.20;;
1613;SDS011;800;48.824;9.346;2022-12-24T08:58:28;7.53;;;2.13;;
1613;SDS011;800;48.824;9.346;2022-12-24T09:00:54;10.30;;;2.87;;
1613;SDS011;800;48.824;9.346;2022-12-24T09:03:19;4.10;;;2.10;;
1613;SDS011;800;48.824;9.346;2022-12-24T09:05:45;6.20;;;3.00;;
1613;SDS011;800;48.824;9.346;2022-12-24T09:08:11;6.70;;;2.63;;
1613;SDS011;800;48.824;9.346;2022-12-24T09:10:37;6.13;;;2.30;;
1613;SDS011;800;48.824;9.346;2022-12-24T09:13:03;8.80;;;3.17;;
1613;SDS011;800;48.824;9.346;2022-12-24T09:15:28;4.73;;;2.70;;
1613;SDS011;800;48.824;9.346;2022-12-24T09:17:54;4.73;;;2.30;;
1613;SDS011;800;48.824;9.346;2022-12-24T09:20:19;5.37;;;2.40;;
1613;SDS011;800;48.824;9.346;2022-12-24T09:22:45;10.27;;;3.60;;
1613;SDS011;800;48.824;9.346;2022-12-24T09:25:11;8.47;;;5.23;;
1613;SDS011;800;48.824;9.346;2022-12-24T09:27:36;12.67;;;8.00;;
1613;SDS011;800;48.824;9.346;2022-12-24T09:30:03;18.33;;;11.70;;
1613;SDS011;800;48.824;9.346;2022-12-24T09:32:30;22.63;;;12.17;;
1613;SDS011;800;48.824;9.346;2022-12-24T09:34:55;22.10;;;12.13;;
1613;SDS011;800;48.824;9.346;2022-12-24T09:37:21;14.87;;;8.40;;
1613;SDS011;800;48.824;9.346;2022-12-24T09:39:47;14.13;;;8.30;;
1613;SDS011;800;48.824;9.346;2022-12-24T09:44:48;17.87;;;8.83;;
1613;SDS011;800;48.824;9.346;2022-12-24T09:47:53;11.53;;;3.47;;
1613;SDS011;800;48.824;9.346;2022-12-24T09:50:21;8.53;;;2.37;;
1613;SDS011;800;48.824;9.346;2022-12-24T09:52:48;7.70;;;2.57;;
1613;SDS011;800;48.824;9.346;2022-12-24T09:55:19;7.83;;;2.40;;
1613;SDS011;800;48.824;9.346;2022-12-24T09:57:54;8.60;;;2.70;;
1613;SDS011;800;48.824;9.346;2022-12-24T10:00:26;7.33;;;2.10;;
1613;SDS011;800;48.824;9.346;2022-12-24T10:02:57;7.27;;;2.60;;
1613;SDS011;800;48.824;9.346;2022-12-24T10:05:32;7.47;;;2.47;;
1613;SDS011;800;48.824;9.346;2022-12-24T10:10:50;8.17;;;2.60;;
1613;SDS011;800;48.824;9.346;2022-12-24T10:15:58;8.67;;;2.20;;
1613;SDS011;800;48.824;9.346;2022-12-24T10:21:21;9.20;;;2.90;;
1613;SDS011;800;48.824;9.346;2022-12-24T10:24:11;8.90;;;2.50;;
1613;SDS011;800;48.824;9.346;2022-12-24T10:26:45;5.13;;;1.97;;
1613;SDS011;800;48.824;9.346;2022-12-24T10:29:17;4.60;;;2.47;;
1613;SDS011;800;48.824;9.346;2022-12-24T10:34:40;8.10;;;2.23;;
1613;SDS011;800;48.824;9.346;2022-12-24T10:37:21;6.70;;;2.07;;
1613;SDS011;800;48.824;9.346;2022-12-24T10:39:48;10.83;;;3.70;;
1613;SDS011;800;48.824;9.346;2022-12-24T10:42:14;7.97;;;2.70;;
1613;SDS011;800;48.824;9.346;2022-12-24T10:44:42;9.57;;;4.27;;
1613;SDS011;800;48.824;9.346;2022-12-24T10:47:11;6.43;;;4.10;;
1613;SDS011;800;48.824;9.346;2022-12-24T10:52:26;5.60;;;2.00;;
1613;SDS011;800;48.824;9.346;2022-12-24T10:55:11;5.17;;;2.20;;
1613;SDS011;800;48.824;9.346;2022-12-24T10:58:01;6.13;;;2.60;;
1613;SDS011;800;48.824;9.346;2022-12-24T11:00:29;10.30;;;3.30;;
1613;SDS011;800;48.824;9.346;2022-12-24T11:03:06;9.70;;;2.83;;
1613;SDS011;800;48.824;9.346;2022-12-24T11:06:12;8.27;;;3.40;;
1613;SDS011;800;48.824;9.346;2022-12-24T11:08:42;9.03;;;2.43;;
1613;SDS011;800;48.824;9.346;2022-12-24T11:11:10;10.83;;;2.60;;
1613;SDS011;800;48.824;9.346;2022-12-24T11:16:26;5.07;;;2.20;;
1613;SDS011;800;48.824;9.346;2022-12-24T11:19:01;4.97;;;2.40;;
1613;SDS011;800;48.824;9.346;2022-12-24T11:21:39;8.23;;;2.87;;
1613;SDS011;800;48.824;9.346;2022-12-24T11:26:37;9.90;;;2.63;;
1613;SDS011;800;48.824;9.346;2022-12-24T11:31:35;6.83;;;3.03;;
1613;SDS011;800;48.824;9.346;2022-12-24T11:34:16;9.60;;;2.43;;
1613;SDS011;800;48.824;9.346;2022-12-24T11:36:42;5.30;;;2.37;;
1613;SDS011;800;48.824;9.346;2022-12-24T11:39:09;6.33;;;2.57;;
1613;SDS011;800;48.824;9.346;2022-12-24T11:41:47;10.70;;;3.80;;
1613;SDS011;800;48.824;9.346;2022-12-24T11:44:15;7.40;;;3.03;;
1613;SDS011;800;48.824;9.346;2022-12-24T11:46:49;8.23;;;2.43;;
1613;SDS011;800;48.824;9.346;2022-12-24T11:54:55;10.23;;;3.23;;
1613;SDS011;800;48.824;9.346;2022-12-24T11:58:01;7.63;;;2.60;;
1613;SDS011;800;48.824;9.346;2022-12-24T12:00:24;6.77;;;2.80;;
1613;SDS011;800;48.824;9.346;2022-12-24T12:02:51;5.40;;;2.67;;
1613;SDS011;800;48.824;9.346;2022-12-24T12:05:20;7.10;;;3.33;;
1613;SDS011;800;48.824;9.346;2022-12-24T12:07:51;8.87;;;3.50;;
1613;SDS011;800;48.824;9.346;2022-12-24T12:10:23;10.03;;;2.90;;
1613;SDS011;800;48.824;9.346;2022-12-24T12:15:33;10.67;;;3.33;;
1613;SDS011;800;48.824;9.346;2022-12-24T12:18:10;8.37;;;2.50;;
1613;SDS011;800;48.824;9.346;2022-12-24T12:25:52;5.23;;;2.50;;
1613;SDS011;800;48.824;9.346;2022-12-24T12:28:22;6.93;;;2.90;;
1613;SDS011;800;48.824;9.346;2022-12-24T12:30:54;8.07;;;3.87;;
1613;SDS011;800;48.824;9.346;2022-12-24T12:36:09;6.57;;;2.73;;
1613;SDS011;800;48.824;9.346;2022-12-24T12:38:36;6.33;;;3.20;;
1613;SDS011;800;48.824;9.346;2022-12-24T12:57:32;9.60;;;2.90;;
1613;SDS011;800;48.824;9.346;2022-12-24T13:00:05;9.97;;;3.30;;
1613;SDS011;800;48.824;9.346;2022-12-24T13:08:20;11.53;;;3.20;;
1613;SDS011;800;48.824;9.346;2022-12-24T13:22:12;8.87;;;2.80;;
1613;SDS011;800;48.824;9.346;2022-12-24T13:24:40;10.07;;;3.27;;
1613;SDS011;800;48.824;9.346;2022-12-24T13:27:19;8.47;;;2.83;;
1613;SDS011;800;48.824;9.346;2022-12-24T13:29:51;10.90;;;3.03;;
1613;SDS011;800;48.824;9.346;2022-12-24T13:47:54;9.17;;;2.80;;
1613;SDS011;800;48.824;9.346;2022-12-24T13:50:45;8.87;;;3.50;;
1613;SDS011;800;48.824;9.346;2022-12-24T13:56:06;9.30;;;2.87;;
1613;SDS011;800;48.824;9.346;2022-12-24T13:58:45;7.80;;;2.60;;
1613;SDS011;800;48.824;9.346;2022-12-24T14:01:17;7.20;;;2.90;;
1613;SDS011;800;48.824;9.346;2022-12-24T14:03:53;13.40;;;4.83;;
1613;SDS011;800;48.824;9.346;2022-12-24T14:06:23;10.33;;;3.67;;
1613;SDS011;800;48.824;9.346;2022-12-24T14:08:49;9.93;;;4.20;;
1613;SDS011;800;48.824;9.346;2022-12-24T14:11:19;11.30;;;3.73;;
1613;SDS011;800;48.824;9.346;2022-12-24T14:16:13;8.77;;;4.20;;
1613;SDS011;800;48.824;9.346;2022-12-24T14:18:42;6.27;;;3.37;;
1613;SDS011;800;48.824;9.346;2022-12-24T14:21:28;10.23;;;4.00;;
1613;SDS011;800;48.824;9.346;2022-12-24T14:23:58;9.43;;;4.37;;
1613;SDS011;800;48.824;9.346;2022-12-24T14:26:34;11.83;;;6.80;;
1613;SDS011;800;48.824;9.346;2022-12-24T14:29:20;15.13;;;6.67;;
1613;SDS011;800;48.824;9.346;2022-12-24T14:31:51;9.10;;;5.33;;
1613;SDS011;800;48.824;9.346;2022-12-24T14:34:18;9.30;;;5.07;;
1613;SDS011;800;48.824;9.346;2022-12-24T14:36:44;14.33;;;4.43;;
1613;SDS011;800;48.824;9.346;2022-12-24T14:39:15;8.83;;;3.60;;
1613;SDS011;800;48.824;9.346;2022-12-24T14:46:53;14.03;;;5.10;;
1613;SDS011;800;48.824;9.346;2022-12-24T14:54:41;13.70;;;5.17;;
1613;SDS011;800;48.824;9.346;2022-12-24T14:59:49;8.23;;;4.03;;
1613;SDS011;800;48.824;9.346;2022-12-24T15:05:23;13.67;;;5.73;;
1613;SDS011;800;48.824;9.346;2022-12-24T15:07:57;14.10;;;7.03;;
1613;SDS011;800;48.824;9.346;2022-12-24T15:12:53;8.17;;;4.63;;
1613;SDS011;800;48.824;9.346;2022-12-24T15:15:20;10.97;;;5.10;;
1613;SDS011;800;48.824;9.346;2022-12-24T15:17:46;8.43;;;4.90;;
1613;SDS011;800;48.824;9.346;2022-12-24T15:20:13;9.43;;;4.63;;
1613;SDS011;800;48.824;9.346;2022-12-24T15:22:41;10.20;;;5.07;;
1613;SDS011;800;48.824;9.346;2022-12-24T15:25:16;13.93;;;4.60;;
1613;SDS011;800;48.824;9.346;2022-12-24T15:27:43;9.70;;;4.50;;
1613;SDS011;800;48.824;9.346;2022-12-24T15:30:17;12.57;;;5.90;;
1613;SDS011;800;48.824;9.346;2022-12-24T15:32:45;13.30;;;4.80;;
1613;SDS011;800;48.824;9.346;2022-12-24T15:38:04;9.20;;;4.80;;
1613;SDS011;800;48.824;9.346;2022-12-24T15:40:47;13.93;;;5.10;;
1613;SDS011;800;48.824;9.346;2022-12-24T15:43:13;11.33;;;5.43;;
1613;SDS011;800;48.824;9.346;2022-12-24T15:45:40;20.83;;;6.13;;
1613;SDS011;800;48.824;9.346;2022-12-24T15:48:10;10.07;;;6.60;;
1613;SDS011;800;48.824;9.346;2022-12-24T15:50:58;10.27;;;6.00;;
1613;SDS011;800;48.824;9.346;2022-12-24T15:53:30;17.50;;;7.53;;
1613;SDS011;800;48.824;9.346;2022-12-24T15:58:28;11.33;;;6.27;;
1613;SDS011;800;48.824;9.346;2022-12-24T16:00:59;18.67;;;7.57;;
1613;SDS011;800;48.824;9.346;2022-12-24T16:06:13;11.40;;;5.60;;
1613;SDS011;800;48.824;9.346;2022-12-24T16:08:39;12.63;;;6.00;;
1613;SDS011;800;48.824;9.346;2022-12-24T16:11:25;16.37;;;6.50;;
1613;SDS011;800;48.824;9.346;2022-12-24T16:14:14;9.67;;;6.70;;
1613;SDS011;800;48.824;9.346;2022-12-24T16:16:47;15.60;;;7.70;;
1613;SDS011;800;48.824;9.346;2022-12-24T16:21:51;9.00;;;5.67;;
1613;SDS011;800;48.824;9.346;2022-12-24T16:26:49;12.47;;;5.27;;
1613;SDS011;800;48.824;9.346;2022-12-24T16:29:15;11.20;;;5.37;;
1613;SDS011;800;48.824;9.346;2022-12-24T16:34:25;13.53;;;5.50;;
1613;SDS011;800;48.824;9.346;2022-12-24T16:36:52;8.70;;;4.87;;
1613;SDS011;800;48.824;9.346;2022-12-24T16:39:19;14.13;;;5.70;;
1613;SDS011;800;48.824;9.346;2022-12-24T16:41:52;10.47;;;5.93;;
1613;SDS011;800;48.824;9.346;2022-12-24T16:44:38;11.30;;;7.63;;
1613;SDS011;800;48.824;9.346;2022-12-24T16:47:05;19.50;;;13.60;;
1613;SDS011;800;48.824;9.346;2022-12-24T16:49:36;17.93;;;11.90;;
1613;SDS011;800;48.824;9.346;2022-12-24T16:52:03;16.53;;;9.10;;
1613;SDS011;800;48.824;9.346;2022-12-24T16:54:29;18.23;;;9.00;;
1613;SDS011;800;48.824;9.346;2022-12-24T16:56:55;14.57;;;7.63;;
1613;SDS011;800;48.824;9.346;2022-12-24T16:59:21;13.27;;;7.10;;
1613;SDS011;800;48.824;9.346;2022-12-24T17:01:48;15.53;;;7.43;;
1613;SDS011;800;48.824;9.346;2022-12-24T17:04:14;14.53;;;6.20;;
1613;SDS011;800;48.824;9.346;2022-12-24T17:06:41;13.83;;;6.50;;
1613;SDS011;800;48.824;9.346;2022-12-24T17:09:07;13.83;;;6.83;;
1613;SDS011;800;48.824;9.346;2022-12-24T17:11:33;18.77;;;8.70;;
1613;SDS011;800;48.824;9.346;2022-12-24T17:13:59;18.03;;;8.97;;
1613;SDS011;800;48.824;9.346;2022-12-24T17:16:25;13.10;;;9.73;;
1613;SDS011;800;48.824;9.346;2022-12-24T17:18:50;17.97;;;9.73;;
1613;SDS011;800;48.824;9.346;2022-12-24T17:21:16;14.13;;;8.73;;
1613;SDS011;800;48.824;9.346;2022-12-24T17:23:42;10.27;;;7.73;;
1613;SDS011;800;48.824;9.346;2022-12-24T17:26:11;15.37;;;6.70;;
1613;SDS011;800;48.824;9.346;2022-12-24T17:28:38;14.60;;;7.40;;
1613;SDS011;800;48.824;9.346;2022-12-24T17:31:07;15.50;;;7.37;;
1613;SDS011;800;48.824;9.346;2022-12-24T17:33:37;14.23;;;7.90;;
1613;SDS011;800;48.824;9.346;2022-12-24T17:36:03;13.23;;;6.93;;
1613;SDS011;800;48.824;9.346;2022-12-24T17:38:30;15.90;;;7.80;;
1613;SDS011;800;48.824;9.346;2022-12-24T17:40:59;13.83;;;7.70;;
1613;SDS011;800;48.824;9.346;2022-12-24T17:43:26;11.00;;;7.23;;
1613;SDS011;800;48.824;9.346;2022-12-24T17:45:51;14.53;;;7.27;;
1613;SDS011;800;48.824;9.346;2022-12-24T17:48:17;18.33;;;9.27;;
1613;SDS011;800;48.824;9.346;2022-12-24T17:50:42;12.10;;;7.90;;
1613;SDS011;800;48.824;9.346;2022-12-24T17:53:08;19.13;;;8.47;;
1613;SDS011;800;48.824;9.346;2022-12-24T17:55:37;16.27;;;7.90;;
1613;SDS011;800;48.824;9.346;2022-12-24T17:58:04;14.53;;;8.70;;
1613;SDS011;800;48.824;9.346;2022-12-24T18:00:31;15.37;;;9.40;;
1613;SDS011;800;48.824;9.346;2022-12-24T18:02:57;16.73;;;8.50;;
1613;SDS011;800;48.824;9.346;2022-12-24T18:05:23;18.10;;;8.93;;